Terminal Aerodrome Forecast
Issued by NWS

Current Version | Previous Version | Text Only | Print | Product List | Glossary On
Versions: 1 2 3 4 5 6 7 8 9 10 11 12 13 14
000
FTUS42 TJSJ 261100
TAFJPS
TAF
TJPS 261133Z 2612/2712 07005KT P6SM FEW030 FEW090
     FM261400 12010G15KT P6SM SCT030 SCT050
     FM262330 09007KT P6SM FEW030 SCT060
      AMD NOT SKED TIL 270300=

USA.gov is the U.S. government's official web portal to all federal, state and local government web resources and services.